sensor_id;sensor_type;location;lat;lon;timestamp;temperature;humidity
56240;DHT22;42154;51.992;5.896;2023-03-01T00:01:25;0.30;99.90
56240;DHT22;42154;51.992;5.896;2023-03-01T00:03:52;0.30;99.90
56240;DHT22;42154;51.992;5.896;2023-03-01T00:06:19;0.20;99.90
56240;DHT22;42154;51.992;5.896;2023-03-01T00:08:45;0.20;99.90
56240;DHT22;42154;51.992;5.896;2023-03-01T00:11:20;0.20;99.90
56240;DHT22;42154;51.992;5.896;2023-03-01T00:13:48;0.20;99.90
56240;DHT22;42154;51.992;5.896;2023-03-01T00:16:31;0.10;99.90
56240;DHT22;42154;51.992;5.896;2023-03-01T00:18:59;0.20;99.90
56240;DHT22;42154;51.992;5.896;2023-03-01T00:21:25;0.10;99.90
56240;DHT22;42154;51.992;5.896;2023-03-01T00:23:52;0.10;99.90
56240;DHT22;42154;51.992;5.896;2023-03-01T00:26:19;0.10;99.90
56240;DHT22;42154;51.992;5.896;2023-03-01T00:28:45;0.00;99.90
56240;DHT22;42154;51.992;5.896;2023-03-01T00:31:14;0.10;99.90
56240;DHT22;42154;51.992;5.896;2023-03-01T00:33:40;0.00;99.90
56240;DHT22;42154;51.992;5.896;2023-03-01T00:36:07;0.00;99.90
56240;DHT22;42154;51.992;5.896;2023-03-01T00:38:38;0.00;99.90
56240;DHT22;42154;51.992;5.896;2023-03-01T00:41:05;0.00;99.90
56240;DHT22;42154;51.992;5.896;2023-03-01T00:43:31;0.00;99.90
56240;DHT22;42154;51.992;5.896;2023-03-01T00:46:07;0.00;99.90
56240;DHT22;42154;51.992;5.896;2023-03-01T00:48:34;0.00;99.90
56240;DHT22;42154;51.992;5.896;2023-03-01T00:51:10;0.00;99.90
56240;DHT22;42154;51.992;5.896;2023-03-01T00:53:36;0.00;99.90
56240;DHT22;42154;51.992;5.896;2023-03-01T00:56:03;-0.10;99.90
56240;DHT22;42154;51.992;5.896;2023-03-01T00:58:30;0.00;99.90
56240;DHT22;42154;51.992;5.896;2023-03-01T01:00:56;0.00;99.90
56240;DHT22;42154;51.992;5.896;2023-03-01T01:03:22;0.00;99.90
56240;DHT22;42154;51.992;5.896;2023-03-01T01:05:53;-0.10;99.90
56240;DHT22;42154;51.992;5.896;2023-03-01T01:08:20;-0.10;99.90
56240;DHT22;42154;51.992;5.896;2023-03-01T01:10:46;-0.10;99.90
56240;DHT22;42154;51.992;5.896;2023-03-01T01:13:13;-0.10;99.90
56240;DHT22;42154;51.992;5.896;2023-03-01T01:15:39;-0.10;99.90
56240;DHT22;42154;51.992;5.896;2023-03-01T01:18:05;0.00;99.90
56240;DHT22;42154;51.992;5.896;2023-03-01T01:20:32;0.00;99.90
56240;DHT22;42154;51.992;5.896;2023-03-01T01:22:58;0.00;99.90
56240;DHT22;42154;51.992;5.896;2023-03-01T01:33:25;-0.10;99.90
56240;DHT22;42154;51.992;5.896;2023-03-01T01:35:52;-0.20;99.90
56240;DHT22;42154;51.992;5.896;2023-03-01T01:38:18;-0.20;99.90
56240;DHT22;42154;51.992;5.896;2023-03-01T01:40:45;-0.20;99.90
56240;DHT22;42154;51.992;5.896;2023-03-01T01:43:27;-0.20;99.90
56240;DHT22;42154;51.992;5.896;2023-03-01T01:49:02;-0.20;99.90
56240;DHT22;42154;51.992;5.896;2023-03-01T01:51:34;-0.20;99.90
56240;DHT22;42154;51.992;5.896;2023-03-01T01:54:10;-0.20;99.90
56240;DHT22;42154;51.992;5.896;2023-03-01T01:56:39;-0.20;99.90
56240;DHT22;42154;51.992;5.896;2023-03-01T01:59:06;-0.10;99.90
56240;DHT22;42154;51.992;5.896;2023-03-01T02:01:32;-0.10;99.90
56240;DHT22;42154;51.992;5.896;2023-03-01T02:03:58;-0.10;99.90
56240;DHT22;42154;51.992;5.896;2023-03-01T02:06:38;-0.10;99.90
56240;DHT22;42154;51.992;5.896;2023-03-01T02:09:10;-0.20;99.90
56240;DHT22;42154;51.992;5.896;2023-03-01T02:11:37;-0.20;99.90
56240;DHT22;42154;51.992;5.896;2023-03-01T02:14:03;-0.20;99.90
56240;DHT22;42154;51.992;5.896;2023-03-01T02:16:29;-0.10;99.90
56240;DHT22;42154;51.992;5.896;2023-03-01T02:18:57;-0.20;99.90
56240;DHT22;42154;51.992;5.896;2023-03-01T02:21:42;-0.10;99.90
56240;DHT22;42154;51.992;5.896;2023-03-01T02:26:49;-0.10;99.90
56240;DHT22;42154;51.992;5.896;2023-03-01T02:29:17;0.00;99.90
56240;DHT22;42154;51.992;5.896;2023-03-01T02:31:42;-0.20;99.90
56240;DHT22;42154;51.992;5.896;2023-03-01T02:34:17;-0.20;99.90
56240;DHT22;42154;51.992;5.896;2023-03-01T02:36:47;-0.10;99.90
56240;DHT22;42154;51.992;5.896;2023-03-01T02:39:20;-0.10;99.90
56240;DHT22;42154;51.992;5.896;2023-03-01T02:41:50;-0.10;99.90
56240;DHT22;42154;51.992;5.896;2023-03-01T02:44:17;-0.10;99.90
56240;DHT22;42154;51.992;5.896;2023-03-01T02:46:48;-0.10;99.90
56240;DHT22;42154;51.992;5.896;2023-03-01T02:49:21;-0.10;99.90
56240;DHT22;42154;51.992;5.896;2023-03-01T02:54:58;-0.10;99.90
56240;DHT22;42154;51.992;5.896;2023-03-01T02:57:28;-0.10;99.90
56240;DHT22;42154;51.992;5.896;2023-03-01T02:59:55;0.00;99.90
56240;DHT22;42154;51.992;5.896;2023-03-01T03:02:25;-0.10;99.90
56240;DHT22;42154;51.992;5.896;2023-03-01T03:05:13;-0.10;99.90
56240;DHT22;42154;51.992;5.896;2023-03-01T03:07:43;-0.10;99.90
56240;DHT22;42154;51.992;5.896;2023-03-01T03:10:15;-0.10;99.90
56240;DHT22;42154;51.992;5.896;2023-03-01T03:12:41;-0.10;99.90
56240;DHT22;42154;51.992;5.896;2023-03-01T03:15:08;-0.10;99.90
56240;DHT22;42154;51.992;5.896;2023-03-01T03:17:40;-0.10;99.90
56240;DHT22;42154;51.992;5.896;2023-03-01T03:20:07;-0.10;99.90
56240;DHT22;42154;51.992;5.896;2023-03-01T03:22:40;-0.10;99.90
56240;DHT22;42154;51.992;5.896;2023-03-01T03:25:08;-0.10;99.90
56240;DHT22;42154;51.992;5.896;2023-03-01T03:27:41;-0.10;99.90
56240;DHT22;42154;51.992;5.896;2023-03-01T03:30:10;-0.10;99.90
56240;DHT22;42154;51.992;5.896;2023-03-01T03:32:42;-0.10;99.90
56240;DHT22;42154;51.992;5.896;2023-03-01T03:35:23;-0.10;99.90
56240;DHT22;42154;51.992;5.896;2023-03-01T03:37:50;-0.10;99.90
56240;DHT22;42154;51.992;5.896;2023-03-01T03:40:39;-0.10;99.90
56240;DHT22;42154;51.992;5.896;2023-03-01T03:43:07;-0.10;99.90
56240;DHT22;42154;51.992;5.896;2023-03-01T03:45:34;-0.10;99.90
56240;DHT22;42154;51.992;5.896;2023-03-01T03:48:02;-0.10;99.90
56240;DHT22;42154;51.992;5.896;2023-03-01T03:50:28;-0.10;99.90
56240;DHT22;42154;51.992;5.896;2023-03-01T03:52:54;-0.20;99.90
56240;DHT22;42154;51.992;5.896;2023-03-01T03:55:20;-0.10;99.90
56240;DHT22;42154;51.992;5.896;2023-03-01T03:57:47;-0.10;99.90
56240;DHT22;42154;51.992;5.896;2023-03-01T04:00:20;-0.10;99.90
56240;DHT22;42154;51.992;5.896;2023-03-01T04:02:47;-0.10;99.90
56240;DHT22;42154;51.992;5.896;2023-03-01T04:05:15;-0.10;99.90
56240;DHT22;42154;51.992;5.896;2023-03-01T04:07:42;-0.10;99.90
56240;DHT22;42154;51.992;5.896;2023-03-01T04:10:10;-0.10;99.90
56240;DHT22;42154;51.992;5.896;2023-03-01T04:12:36;-0.20;99.90
56240;DHT22;42154;51.992;5.896;2023-03-01T04:15:03;-0.20;99.90
56240;DHT22;42154;51.992;5.896;2023-03-01T04:17:42;-0.20;99.90
56240;DHT22;42154;51.992;5.896;2023-03-01T04:20:10;-0.20;99.90
56240;DHT22;42154;51.992;5.896;2023-03-01T04:22:37;-0.20;99.90
56240;DHT22;42154;51.992;5.896;2023-03-01T04:25:04;-0.30;99.90
56240;DHT22;42154;51.992;5.896;2023-03-01T04:27:35;-0.30;99.90
56240;DHT22;42154;51.992;5.896;2023-03-01T04:30:02;-0.30;99.90
56240;DHT22;42154;51.992;5.896;2023-03-01T04:32:28;-0.30;99.90
56240;DHT22;42154;51.992;5.896;2023-03-01T04:34:54;-0.30;99.90
56240;DHT22;42154;51.992;5.896;2023-03-01T04:37:20;-0.30;99.90
56240;DHT22;42154;51.992;5.896;2023-03-01T04:39:45;-0.30;99.90
56240;DHT22;42154;51.992;5.896;2023-03-01T04:42:14;-0.30;99.90
56240;DHT22;42154;51.992;5.896;2023-03-01T04:44:40;-0.30;99.90
56240;DHT22;42154;51.992;5.896;2023-03-01T04:47:05;-0.30;99.90
56240;DHT22;42154;51.992;5.896;2023-03-01T04:49:31;-0.30;99.90
56240;DHT22;42154;51.992;5.896;2023-03-01T04:51:57;-0.30;99.90
56240;DHT22;42154;51.992;5.896;2023-03-01T04:54:33;-0.30;99.90
56240;DHT22;42154;51.992;5.896;2023-03-01T04:57:00;-0.30;99.90
56240;DHT22;42154;51.992;5.896;2023-03-01T04:59:26;-0.30;99.90
56240;DHT22;42154;51.992;5.896;2023-03-01T05:01:52;-0.30;99.90
56240;DHT22;42154;51.992;5.896;2023-03-01T05:04:21;-0.30;99.90
56240;DHT22;42154;51.992;5.896;2023-03-01T05:06:47;-0.30;99.90
56240;DHT22;42154;51.992;5.896;2023-03-01T05:09:13;-0.30;99.90
56240;DHT22;42154;51.992;5.896;2023-03-01T05:11:39;-0.30;99.90
56240;DHT22;42154;51.992;5.896;2023-03-01T05:14:05;-0.30;99.90
56240;DHT22;42154;51.992;5.896;2023-03-01T05:16:31;-0.30;99.90
56240;DHT22;42154;51.992;5.896;2023-03-01T05:18:58;-0.30;99.90
56240;DHT22;42154;51.992;5.896;2023-03-01T05:21:24;-0.30;99.90
56240;DHT22;42154;51.992;5.896;2023-03-01T05:23:51;-0.40;99.90
56240;DHT22;42154;51.992;5.896;2023-03-01T05:26:20;-0.50;99.90
56240;DHT22;42154;51.992;5.896;2023-03-01T05:28:54;-0.50;99.90
56240;DHT22;42154;51.992;5.896;2023-03-01T05:31:23;-0.50;99.90
56240;DHT22;42154;51.992;5.896;2023-03-01T05:33:49;-0.60;99.90
56240;DHT22;42154;51.992;5.896;2023-03-01T05:36:15;-0.60;99.90
56240;DHT22;42154;51.992;5.896;2023-03-01T05:38:41;-0.60;99.90
56240;DHT22;42154;51.992;5.896;2023-03-01T05:41:14;-0.70;99.90
56240;DHT22;42154;51.992;5.896;2023-03-01T05:43:40;-0.70;99.90
56240;DHT22;42154;51.992;5.896;2023-03-01T05:46:08;-0.70;99.90
56240;DHT22;42154;51.992;5.896;2023-03-01T05:48:37;-0.70;99.90
56240;DHT22;42154;51.992;5.896;2023-03-01T05:51:04;-0.70;99.90
56240;DHT22;42154;51.992;5.896;2023-03-01T05:53:30;-0.70;99.90
56240;DHT22;42154;51.992;5.896;2023-03-01T05:55:55;-0.70;99.90
56240;DHT22;42154;51.992;5.896;2023-03-01T05:58:21;-0.70;99.90
56240;DHT22;42154;51.992;5.896;2023-03-01T06:00:48;-0.70;99.90
56240;DHT22;42154;51.992;5.896;2023-03-01T06:03:15;-0.70;99.90
56240;DHT22;42154;51.992;5.896;2023-03-01T06:05:42;-0.60;99.90
56240;DHT22;42154;51.992;5.896;2023-03-01T06:08:09;-0.60;99.90
56240;DHT22;42154;51.992;5.896;2023-03-01T06:10:35;-0.60;99.90
56240;DHT22;42154;51.992;5.896;2023-03-01T06:13:01;-0.60;99.90
56240;DHT22;42154;51.992;5.896;2023-03-01T06:15:27;-0.60;99.90
56240;DHT22;42154;51.992;5.896;2023-03-01T06:17:54;-0.60;99.90
56240;DHT22;42154;51.992;5.896;2023-03-01T06:20:25;-0.60;99.90
56240;DHT22;42154;51.992;5.896;2023-03-01T06:22:51;-0.70;99.90
56240;DHT22;42154;51.992;5.896;2023-03-01T06:25:20;-0.70;99.90
56240;DHT22;42154;51.992;5.896;2023-03-01T06:27:47;-0.70;99.90
56240;DHT22;42154;51.992;5.896;2023-03-01T06:30:16;-0.70;99.90
56240;DHT22;42154;51.992;5.896;2023-03-01T06:32:43;-0.70;99.90
56240;DHT22;42154;51.992;5.896;2023-03-01T06:35:13;-0.70;99.90
56240;DHT22;42154;51.992;5.896;2023-03-01T06:37:39;-0.70;99.90
56240;DHT22;42154;51.992;5.896;2023-03-01T06:40:07;-0.70;99.90
56240;DHT22;42154;51.992;5.896;2023-03-01T06:42:38;-0.70;99.90
56240;DHT22;42154;51.992;5.896;2023-03-01T06:45:05;-0.70;99.90
56240;DHT22;42154;51.992;5.896;2023-03-01T06:47:31;-0.70;99.90
56240;DHT22;42154;51.992;5.896;2023-03-01T06:49:59;-0.70;99.90
56240;DHT22;42154;51.992;5.896;2023-03-01T06:52:25;-0.70;99.90
56240;DHT22;42154;51.992;5.896;2023-03-01T06:54:50;-0.70;99.90
56240;DHT22;42154;51.992;5.896;2023-03-01T06:57:17;-0.70;99.90
56240;DHT22;42154;51.992;5.896;2023-03-01T06:59:42;-0.60;99.90
56240;DHT22;42154;51.992;5.896;2023-03-01T07:02:11;-0.60;99.90
56240;DHT22;42154;51.992;5.896;2023-03-01T07:04:38;-0.50;99.90
56240;DHT22;42154;51.992;5.896;2023-03-01T07:07:04;-0.50;99.90
56240;DHT22;42154;51.992;5.896;2023-03-01T07:09:30;-0.40;99.90
56240;DHT22;42154;51.992;5.896;2023-03-01T07:11:56;-0.40;99.90
56240;DHT22;42154;51.992;5.896;2023-03-01T07:14:22;-0.30;99.90
56240;DHT22;42154;51.992;5.896;2023-03-01T07:16:50;-0.30;99.90
56240;DHT22;42154;51.992;5.896;2023-03-01T07:19:16;-0.30;99.90
56240;DHT22;42154;51.992;5.896;2023-03-01T07:21:41;-0.20;99.90
56240;DHT22;42154;51.992;5.896;2023-03-01T07:24:08;-0.20;99.90
56240;DHT22;42154;51.992;5.896;2023-03-01T07:26:34;-0.10;99.90
56240;DHT22;42154;51.992;5.896;2023-03-01T07:29:00;-0.10;99.90
56240;DHT22;42154;51.992;5.896;2023-03-01T07:31:26;0.00;99.90
56240;DHT22;42154;51.992;5.896;2023-03-01T07:33:54;0.00;99.90
56240;DHT22;42154;51.992;5.896;2023-03-01T07:36:20;0.00;99.90
56240;DHT22;42154;51.992;5.896;2023-03-01T07:38:45;0.00;99.90
56240;DHT22;42154;51.992;5.896;2023-03-01T07:41:11;0.10;99.90
56240;DHT22;42154;51.992;5.896;2023-03-01T07:43:37;0.10;99.90
56240;DHT22;42154;51.992;5.896;2023-03-01T07:46:03;0.20;99.90
56240;DHT22;42154;51.992;5.896;2023-03-01T07:48:31;0.30;99.90
56240;DHT22;42154;51.992;5.896;2023-03-01T07:51:01;0.40;99.90
56240;DHT22;42154;51.992;5.896;2023-03-01T07:53:27;0.50;99.90
56240;DHT22;42154;51.992;5.896;2023-03-01T07:58:28;0.70;99.90
56240;DHT22;42154;51.992;5.896;2023-03-01T08:00:53;0.70;99.90
56240;DHT22;42154;51.992;5.896;2023-03-01T08:03:19;0.80;99.90
56240;DHT22;42154;51.992;5.896;2023-03-01T08:05:45;0.90;99.90
56240;DHT22;42154;51.992;5.896;2023-03-01T08:08:10;1.00;99.90
56240;DHT22;42154;51.992;5.896;2023-03-01T08:10:36;1.10;99.90
56240;DHT22;42154;51.992;5.896;2023-03-01T08:13:02;1.20;99.90
56240;DHT22;42154;51.992;5.896;2023-03-01T08:15:28;1.30;99.90
56240;DHT22;42154;51.992;5.896;2023-03-01T08:17:53;1.30;99.90
56240;DHT22;42154;51.992;5.896;2023-03-01T08:20:19;1.50;99.90
56240;DHT22;42154;51.992;5.896;2023-03-01T08:22:45;1.50;99.90
56240;DHT22;42154;51.992;5.896;2023-03-01T08:25:11;1.60;99.90
56240;DHT22;42154;51.992;5.896;2023-03-01T08:27:37;1.70;99.90
56240;DHT22;42154;51.992;5.896;2023-03-01T08:30:03;1.70;99.90
56240;DHT22;42154;51.992;5.896;2023-03-01T08:32:28;1.90;99.90
56240;DHT22;42154;51.992;5.896;2023-03-01T08:34:54;2.00;99.90
56240;DHT22;42154;51.992;5.896;2023-03-01T08:37:20;2.10;99.90
56240;DHT22;42154;51.992;5.896;2023-03-01T08:39:46;2.10;99.90
56240;DHT22;42154;51.992;5.896;2023-03-01T08:42:12;2.20;99.90
56240;DHT22;42154;51.992;5.896;2023-03-01T08:44:37;2.30;99.90
56240;DHT22;42154;51.992;5.896;2023-03-01T08:47:03;2.40;99.90
56240;DHT22;42154;51.992;5.896;2023-03-01T08:49:30;2.40;99.90
56240;DHT22;42154;51.992;5.896;2023-03-01T08:51:58;2.50;99.90
56240;DHT22;42154;51.992;5.896;2023-03-01T08:54:23;2.60;99.90
56240;DHT22;42154;51.992;5.896;2023-03-01T08:56:50;2.70;99.90
56240;DHT22;42154;51.992;5.896;2023-03-01T08:59:16;2.80;99.90
56240;DHT22;42154;51.992;5.896;2023-03-01T09:01:42;3.00;99.90
56240;DHT22;42154;51.992;5.896;2023-03-01T09:04:12;2.90;99.90
56240;DHT22;42154;51.992;5.896;2023-03-01T09:06:38;3.00;99.90
56240;DHT22;42154;51.992;5.896;2023-03-01T09:09:05;3.10;99.90
56240;DHT22;42154;51.992;5.896;2023-03-01T09:11:31;3.10;99.90
56240;DHT22;42154;51.992;5.896;2023-03-01T09:13:57;3.20;99.60
56240;DHT22;42154;51.992;5.896;2023-03-01T09:16:23;3.20;99.30
56240;DHT22;42154;51.992;5.896;2023-03-01T09:18:53;3.30;99.10
56240;DHT22;42154;51.992;5.896;2023-03-01T09:21:21;3.30;98.90
56240;DHT22;42154;51.992;5.896;2023-03-01T09:23:48;3.40;98.90
56240;DHT22;42154;51.992;5.896;2023-03-01T09:26:23;3.50;98.20
56240;DHT22;42154;51.992;5.896;2023-03-01T09:28:52;3.50;98.20
56240;DHT22;42154;51.992;5.896;2023-03-01T09:31:19;3.50;98.10
56240;DHT22;42154;51.992;5.896;2023-03-01T09:33:49;3.50;97.80
56240;DHT22;42154;51.992;5.896;2023-03-01T09:36:18;3.60;97.80
56240;DHT22;42154;51.992;5.896;2023-03-01T09:38:44;3.50;98.00
56240;DHT22;42154;51.992;5.896;2023-03-01T09:46:45;3.70;97.50
56240;DHT22;42154;51.992;5.896;2023-03-01T09:49:26;3.70;97.40
56240;DHT22;42154;51.992;5.896;2023-03-01T09:54:24;3.80;97.20
56240;DHT22;42154;51.992;5.896;2023-03-01T09:57:26;3.80;96.90
56240;DHT22;42154;51.992;5.896;2023-03-01T10:03:00;3.80;96.00
56240;DHT22;42154;51.992;5.896;2023-03-01T10:05:44;3.90;95.40
56240;DHT22;42154;51.992;5.896;2023-03-01T10:11:25;4.00;96.00
56240;DHT22;42154;51.992;5.896;2023-03-01T10:13:55;4.00;95.80
56240;DHT22;42154;51.992;5.896;2023-03-01T10:19:33;4.00;95.40
56240;DHT22;42154;51.992;5.896;2023-03-01T10:22:28;4.00;95.70
56240;DHT22;42154;51.992;5.896;2023-03-01T10:24:56;4.10;95.70
56240;DHT22;42154;51.992;5.896;2023-03-01T10:27:34;4.10;96.00
56240;DHT22;42154;51.992;5.896;2023-03-01T10:32:42;4.10;95.30
56240;DHT22;42154;51.992;5.896;2023-03-01T10:35:22;4.20;95.70
56240;DHT22;42154;51.992;5.896;2023-03-01T10:38:05;4.30;95.40
56240;DHT22;42154;51.992;5.896;2023-03-01T10:40:33;4.30;95.10
56240;DHT22;42154;51.992;5.896;2023-03-01T10:43:01;4.30;95.10
56240;DHT22;42154;51.992;5.896;2023-03-01T10:45:39;4.40;95.30
56240;DHT22;42154;51.992;5.896;2023-03-01T10:50:43;4.40;95.00
56240;DHT22;42154;51.992;5.896;2023-03-01T10:53:25;4.50;94.80
56240;DHT22;42154;51.992;5.896;2023-03-01T10:58:30;4.60;94.60
56240;DHT22;42154;51.992;5.896;2023-03-01T11:01:02;4.60;94.20
56240;DHT22;42154;51.992;5.896;2023-03-01T11:03:37;4.60;94.20
56240;DHT22;42154;51.992;5.896;2023-03-01T11:11:31;4.80;93.40
56240;DHT22;42154;51.992;5.896;2023-03-01T11:16:48;4.90;93.50
56240;DHT22;42154;51.992;5.896;2023-03-01T11:19:17;5.00;92.80
56240;DHT22;42154;51.992;5.896;2023-03-01T11:22:07;4.90;92.70
56240;DHT22;42154;51.992;5.896;2023-03-01T11:24:41;5.10;92.30
56240;DHT22;42154;51.992;5.896;2023-03-01T11:27:33;5.10;92.20
56240;DHT22;42154;51.992;5.896;2023-03-01T11:30:28;5.20;91.10
56240;DHT22;42154;51.992;5.896;2023-03-01T11:33:19;5.20;91.30
56240;DHT22;42154;51.992;5.896;2023-03-01T11:36:00;5.30;91.20
56240;DHT22;42154;51.992;5.896;2023-03-01T11:38:27;5.30;90.60
56240;DHT22;42154;51.992;5.896;2023-03-01T11:41:14;5.30;90.00
56240;DHT22;42154;51.992;5.896;2023-03-01T11:44:01;5.30;90.10
56240;DHT22;42154;51.992;5.896;2023-03-01T11:46:35;5.30;90.00
56240;DHT22;42154;51.992;5.896;2023-03-01T12:05:54;5.60;88.40
56240;DHT22;42154;51.992;5.896;2023-03-01T12:08:41;5.70;89.10
56240;DHT22;42154;51.992;5.896;2023-03-01T12:36:20;6.00;86.20
56240;DHT22;42154;51.992;5.896;2023-03-01T12:41:55;6.10;86.40
56240;DHT22;42154;51.992;5.896;2023-03-01T12:49:48;6.20;85.00
56240;DHT22;42154;51.992;5.896;2023-03-01T12:54:46;6.30;84.70
56240;DHT22;42154;51.992;5.896;2023-03-01T12:57:40;6.30;84.30
56240;DHT22;42154;51.992;5.896;2023-03-01T13:00:32;6.40;83.70
56240;DHT22;42154;51.992;5.896;2023-03-01T13:03:26;6.40;83.90
56240;DHT22;42154;51.992;5.896;2023-03-01T13:06:16;6.50;84.50
56240;DHT22;42154;51.992;5.896;2023-03-01T13:08:56;6.50;84.40
56240;DHT22;42154;51.992;5.896;2023-03-01T13:11:25;6.60;84.20
56240;DHT22;42154;51.992;5.896;2023-03-01T13:13:51;6.60;84.50
56240;DHT22;42154;51.992;5.896;2023-03-01T13:16:40;6.70;84.40
56240;DHT22;42154;51.992;5.896;2023-03-01T13:19:29;6.70;82.80
56240;DHT22;42154;51.992;5.896;2023-03-01T13:21:56;6.80;83.20
56240;DHT22;42154;51.992;5.896;2023-03-01T13:24:35;6.80;81.30
56240;DHT22;42154;51.992;5.896;2023-03-01T13:32:25;6.80;80.30
56240;DHT22;42154;51.992;5.896;2023-03-01T13:37:46;6.90;79.50
56240;DHT22;42154;51.992;5.896;2023-03-01T13:42:55;6.80;79.40
56240;DHT22;42154;51.992;5.896;2023-03-01T13:45:25;6.90;80.30
56240;DHT22;42154;51.992;5.896;2023-03-01T13:48:01;6.90;79.60
56240;DHT22;42154;51.992;5.896;2023-03-01T13:50:31;7.00;80.20
56240;DHT22;42154;51.992;5.896;2023-03-01T13:53:04;7.10;80.50
56240;DHT22;42154;51.992;5.896;2023-03-01T13:55:38;7.10;79.60
56240;DHT22;42154;51.992;5.896;2023-03-01T13:58:28;7.10;77.50
56240;DHT22;42154;51.992;5.896;2023-03-01T14:01:05;7.10;77.30
56240;DHT22;42154;51.992;5.896;2023-03-01T14:03:33;7.20;78.10
56240;DHT22;42154;51.992;5.896;2023-03-01T14:06:08;7.20;78.60
56240;DHT22;42154;51.992;5.896;2023-03-01T14:08:36;7.30;78.10
56240;DHT22;42154;51.992;5.896;2023-03-01T14:19:34;7.30;79.30
56240;DHT22;42154;51.992;5.896;2023-03-01T14:25:00;7.30;79.10
56240;DHT22;42154;51.992;5.896;2023-03-01T14:27:30;7.30;78.40
56240;DHT22;42154;51.992;5.896;2023-03-01T14:29:58;7.30;78.40
56240;DHT22;42154;51.992;5.896;2023-03-01T14:32:27;7.20;79.10
56240;DHT22;42154;51.992;5.896;2023-03-01T14:34:53;7.20;79.00
56240;DHT22;42154;51.992;5.896;2023-03-01T14:37:30;7.20;78.20
56240;DHT22;42154;51.992;5.896;2023-03-01T14:39:58;7.20;78.10
56240;DHT22;42154;51.992;5.896;2023-03-01T14:42:26;7.20;78.20
56240;DHT22;42154;51.992;5.896;2023-03-01T14:44:55;7.20;77.30
56240;DHT22;42154;51.992;5.896;2023-03-01T14:47:33;7.20;77.30
56240;DHT22;42154;51.992;5.896;2023-03-01T14:50:27;7.20;77.30
56240;DHT22;42154;51.992;5.896;2023-03-01T14:53:04;7.20;77.80
56240;DHT22;42154;51.992;5.896;2023-03-01T14:55:31;7.20;76.80
56240;DHT22;42154;51.992;5.896;2023-03-01T14:57:58;7.20;76.30
56240;DHT22;42154;51.992;5.896;2023-03-01T15:00:30;7.20;76.70
56240;DHT22;42154;51.992;5.896;2023-03-01T15:03:01;7.30;76.50
56240;DHT22;42154;51.992;5.896;2023-03-01T15:05:30;7.30;76.00
56240;DHT22;42154;51.992;5.896;2023-03-01T15:08:01;7.30;76.00
56240;DHT22;42154;51.992;5.896;2023-03-01T15:10:31;7.30;76.40
56240;DHT22;42154;51.992;5.896;2023-03-01T15:13:14;7.30;76.20
56240;DHT22;42154;51.992;5.896;2023-03-01T15:15:46;7.30;75.90
56240;DHT22;42154;51.992;5.896;2023-03-01T15:18:17;7.20;74.70
56240;DHT22;42154;51.992;5.896;2023-03-01T15:20:44;7.20;75.30
56240;DHT22;42154;51.992;5.896;2023-03-01T15:23:25;7.20;75.30
56240;DHT22;42154;51.992;5.896;2023-03-01T15:25:53;7.20;75.40
56240;DHT22;42154;51.992;5.896;2023-03-01T15:28:27;7.10;75.40
56240;DHT22;42154;51.992;5.896;2023-03-01T15:31:01;7.10;75.60
56240;DHT22;42154;51.992;5.896;2023-03-01T15:33:28;7.20;75.60
56240;DHT22;42154;51.992;5.896;2023-03-01T15:35:57;7.10;75.20
56240;DHT22;42154;51.992;5.896;2023-03-01T15:38:49;7.10;75.00
56240;DHT22;42154;51.992;5.896;2023-03-01T15:41:38;7.10;75.40
56240;DHT22;42154;51.992;5.896;2023-03-01T15:46:50;7.00;75.60
56240;DHT22;42154;51.992;5.896;2023-03-01T15:49:40;7.00;76.00
56240;DHT22;42154;51.992;5.896;2023-03-01T15:52:39;7.10;76.90
56240;DHT22;42154;51.992;5.896;2023-03-01T15:55:17;7.10;76.90
56240;DHT22;42154;51.992;5.896;2023-03-01T15:57:43;7.00;76.90
56240;DHT22;42154;51.992;5.896;2023-03-01T16:00:10;7.00;76.80
56240;DHT22;42154;51.992;5.896;2023-03-01T16:02:39;7.00;76.40
56240;DHT22;42154;51.992;5.896;2023-03-01T16:05:09;7.00;75.50
56240;DHT22;42154;51.992;5.896;2023-03-01T16:07:41;7.00;75.60
56240;DHT22;42154;51.992;5.896;2023-03-01T16:10:07;7.00;75.50
56240;DHT22;42154;51.992;5.896;2023-03-01T16:12:33;6.90;75.50
56240;DHT22;42154;51.992;5.896;2023-03-01T16:14:59;6.90;76.00
56240;DHT22;42154;51.992;5.896;2023-03-01T16:17:25;6.90;75.60
56240;DHT22;42154;51.992;5.896;2023-03-01T16:19:51;6.80;75.80
56240;DHT22;42154;51.992;5.896;2023-03-01T16:22:17;6.80;75.30
56240;DHT22;42154;51.992;5.896;2023-03-01T16:24:42;6.80;75.20
56240;DHT22;42154;51.992;5.896;2023-03-01T16:27:08;6.70;74.60
56240;DHT22;42154;51.992;5.896;2023-03-01T16:29:35;6.70;75.00
56240;DHT22;42154;51.992;5.896;2023-03-01T16:32:01;6.70;75.20
56240;DHT22;42154;51.992;5.896;2023-03-01T16:34:27;6.60;75.40
56240;DHT22;42154;51.992;5.896;2023-03-01T16:36:53;6.60;75.90
56240;DHT22;42154;51.992;5.896;2023-03-01T16:39:19;6.60;75.60
56240;DHT22;42154;51.992;5.896;2023-03-01T16:41:44;6.60;76.10
56240;DHT22;42154;51.992;5.896;2023-03-01T16:44:10;6.50;76.40
56240;DHT22;42154;51.992;5.896;2023-03-01T16:46:36;6.40;76.50
56240;DHT22;42154;51.992;5.896;2023-03-01T16:49:01;6.40;77.10
56240;DHT22;42154;51.992;5.896;2023-03-01T16:51:28;6.40;77.50
56240;DHT22;42154;51.992;5.896;2023-03-01T16:53:55;6.30;77.60
56240;DHT22;42154;51.992;5.896;2023-03-01T16:56:21;6.30;77.10
56240;DHT22;42154;51.992;5.896;2023-03-01T16:58:47;6.20;77.40
56240;DHT22;42154;51.992;5.896;2023-03-01T17:01:18;6.20;77.50
56240;DHT22;42154;51.992;5.896;2023-03-01T17:03:45;6.20;77.70
56240;DHT22;42154;51.992;5.896;2023-03-01T17:06:16;6.10;78.10
56240;DHT22;42154;51.992;5.896;2023-03-01T17:08:43;6.10;78.30
56240;DHT22;42154;51.992;5.896;2023-03-01T17:11:12;6.00;78.60
56240;DHT22;42154;51.992;5.896;2023-03-01T17:13:39;6.00;79.00
56240;DHT22;42154;51.992;5.896;2023-03-01T17:16:07;5.90;79.30
56240;DHT22;42154;51.992;5.896;2023-03-01T17:18:33;5.80;79.40
56240;DHT22;42154;51.992;5.896;2023-03-01T17:21:00;5.80;79.80
56240;DHT22;42154;51.992;5.896;2023-03-01T17:23:27;5.70;80.10
56240;DHT22;42154;51.992;5.896;2023-03-01T17:25:54;5.70;80.40
56240;DHT22;42154;51.992;5.896;2023-03-01T17:28:22;5.60;80.80
56240;DHT22;42154;51.992;5.896;2023-03-01T17:30:47;5.60;81.20
56240;DHT22;42154;51.992;5.896;2023-03-01T17:33:14;5.50;81.50
56240;DHT22;42154;51.992;5.896;2023-03-01T17:35:40;5.50;81.80
56240;DHT22;42154;51.992;5.896;2023-03-01T17:38:06;5.40;82.20
56240;DHT22;42154;51.992;5.896;2023-03-01T17:40:32;5.40;82.50
56240;DHT22;42154;51.992;5.896;2023-03-01T17:43:00;5.30;82.90
56240;DHT22;42154;51.992;5.896;2023-03-01T17:45:26;5.30;83.50
56240;DHT22;42154;51.992;5.896;2023-03-01T17:47:52;5.30;83.70
56240;DHT22;42154;51.992;5.896;2023-03-01T17:50:17;5.20;84.10
56240;DHT22;42154;51.992;5.896;2023-03-01T17:52:43;5.10;84.50
56240;DHT22;42154;51.992;5.896;2023-03-01T17:55:09;5.10;85.00
56240;DHT22;42154;51.992;5.896;2023-03-01T17:57:38;5.00;85.40
56240;DHT22;42154;51.992;5.896;2023-03-01T18:00:08;5.00;86.20
56240;DHT22;42154;51.992;5.896;2023-03-01T18:02:37;4.90;86.70
56240;DHT22;42154;51.992;5.896;2023-03-01T18:05:03;4.90;87.40
56240;DHT22;42154;51.992;5.896;2023-03-01T18:07:29;4.80;87.70